Time;durP1;ratioP1;P1;durP2;ratioP2;P2;SDS_P1;SDS_P2;PMS_P1;PMS_P2;Temp;Humidity;BMP_temperature;BMP_pressure;BME280_temperature;BME280_humidity;BME280_pressure;Samples;Min_cycle;Max_cycle;Signal;HPM_P1;HPM_P2
2022/10/11 00:01:43;;;;;;;14.23;8.93;;;;;;;14.61;61.75;96093.56;4988676;28;20033;-79
2022/10/11 00:04:09;;;;;;;12.75;9.63;;;;;;;14.65;61.75;96094.88;4970726;28;20037;-80
2022/10/11 00:06:36;;;;;;;17.50;9.82;;;;;;;14.62;61.79;96099.81;4970597;28;20049;-79
2022/10/11 00:09:03;;;;;;;17.60;9.52;;;;;;;14.65;61.74;96097.59;4988854;28;20030;-79
2022/10/11 00:11:28;;;;;;;14.70;9.63;;;;;;;14.69;61.32;96095.31;4987675;28;20061;-79
2022/10/11 00:13:54;;;;;;;16.67;10.05;;;;;;;14.82;61.25;96102.81;4988292;28;20034;-79
2022/10/11 00:16:19;;;;;;;16.10;9.90;;;;;;;14.73;61.57;96096.66;4970216;28;20358;-79
2022/10/11 00:18:44;;;;;;;13.13;9.35;;;;;;;14.72;61.49;96105.75;4954756;28;20030;-79
2022/10/11 00:21:11;;;;;;;11.82;9.05;;;;;;;14.74;61.75;96108.25;4987600;28;20026;-80
2022/10/11 00:23:37;;;;;;;20.02;10.57;;;;;;;14.74;61.82;96110.97;4953795;28;20030;-79
2022/10/11 00:26:04;;;;;;;14.45;9.82;;;;;;;14.77;61.57;96103.34;4970748;28;20022;-79
2022/10/11 00:28:29;;;;;;;17.58;10.18;;;;;;;14.76;61.73;96103.53;4953874;28;20038;-79
2022/10/11 00:30:55;;;;;;;17.35;9.52;;;;;;;14.77;61.91;96097.09;4970569;28;20053;-80
2022/10/11 00:33:20;;;;;;;13.75;9.68;;;;;;;14.74;62.11;96098.31;4970014;28;20030;-79
2022/10/11 00:35:46;;;;;;;15.30;10.05;;;;;;;14.79;62.13;96101.31;4970309;28;20113;-79
2022/10/11 00:38:11;;;;;;;14.82;10.35;;;;;;;14.69;62.63;96106.97;4987501;28;20033;-79
2022/10/11 00:40:36;;;;;;;11.95;9.73;;;;;;;14.66;62.70;96101.94;4970089;28;20041;-79
2022/10/11 00:43:02;;;;;;;18.05;11.20;;;;;;;14.64;62.88;96098.59;4987585;28;20084;-79
2022/10/11 00:45:30;;;;;;;16.50;11.50;;;;;;;14.59;63.15;96104.56;4969766;28;20481;-80
2022/10/11 00:48:03;;;;;;;16.10;10.82;;;;;;;14.52;63.28;96090.13;4987905;28;20023;-80
2022/10/11 00:50:31;;;;;;;18.52;10.90;;;;;;;14.56;63.35;96095.97;4954120;28;20054;-80
2022/10/11 00:52:59;;;;;;;17.52;12.45;;;;;;;14.43;63.78;96085.81;4938223;28;20030;-79
2022/10/11 00:55:25;;;;;;;14.48;10.55;;;;;;;14.29;64.24;96087.50;4969691;28;20034;-79
2022/10/11 00:57:51;;;;;;;15.48;11.88;;;;;;;14.24;64.39;96092.59;4954049;28;20030;-79
2022/10/11 01:00:17;;;;;;;13.63;11.18;;;;;;;14.25;64.41;96100.50;4954124;28;20033;-80
2022/10/11 01:02:42;;;;;;;15.50;11.70;;;;;;;14.26;64.28;96095.97;4953488;28;20123;-80
2022/10/11 01:05:08;;;;;;;18.77;12.00;;;;;;;14.26;64.51;96095.97;4953738;28;20030;-80
2022/10/11 01:07:34;;;;;;;17.58;11.98;;;;;;;14.32;64.46;96095.22;4969036;28;20034;-80
2022/10/11 01:09:59;;;;;;;15.50;11.90;;;;;;;14.32;64.47;96097.91;4953790;28;20354;-80
2022/10/11 01:12:26;;;;;;;17.85;11.80;;;;;;;14.33;64.12;96103.13;4969352;28;20029;-80
2022/10/11 01:15:04;;;;;;;17.35;11.55;;;;;;;14.32;64.39;96096.06;4953604;28;20081;-79
2022/10/11 01:17:54;;;;;;;16.77;11.15;;;;;;;14.30;64.40;96087.31;4987156;28;20378;-80
2022/10/11 01:20:44;;;;;;;16.13;11.98;;;;;;;14.37;64.07;96083.88;4969253;28;20038;-80
2022/10/11 01:23:40;;;;;;;17.63;11.30;;;;;;;14.28;64.54;96086.66;4969908;28;20055;-80
2022/10/11 01:26:28;;;;;;;18.50;12.27;;;;;;;14.24;64.37;96087.22;4986893;28;20038;-80
2022/10/11 01:29:17;;;;;;;15.23;12.02;;;;;;;14.20;64.80;96090.28;4954991;28;20029;-80
2022/10/11 01:32:02;;;;;;;19.75;12.05;;;;;;;14.20;64.94;96084.06;4969378;28;20026;-80
2022/10/11 01:34:48;;;;;;;19.08;13.07;;;;;;;14.14;65.16;96088.31;4953384;28;20033;-80
2022/10/11 01:37:25;;;;;;;17.55;12.95;;;;;;;14.10;65.19;96078.94;4969797;28;20022;-80
2022/10/11 01:39:53;;;;;;;19.38;12.60;;;;;;;14.08;65.27;96078.25;4986789;28;20065;-80
2022/10/11 01:42:18;;;;;;;18.00;13.15;;;;;;;14.05;65.36;96086.72;4969282;28;20030;-80
2022/10/11 01:44:45;;;;;;;18.00;13.05;;;;;;;14.02;65.53;96081.69;4952974;28;20041;-79
2022/10/11 01:47:11;;;;;;;17.90;13.25;;;;;;;13.98;65.76;96083.09;4952979;28;20022;-79
2022/10/11 01:49:36;;;;;;;22.10;13.13;;;;;;;13.84;66.23;96072.91;4986627;28;20112;-80
2022/10/11 01:52:03;;;;;;;22.75;14.07;;;;;;;13.79;66.53;96079.88;4986328;28;20027;-80
2022/10/11 01:54:35;;;;;;;21.75;13.32;;;;;;;13.77;66.63;96081.91;4969335;28;20026;-80
2022/10/11 01:57:19;;;;;;;27.67;15.10;;;;;;;13.80;66.54;96073.47;4986473;28;20035;-79
2022/10/11 02:00:02;;;;;;;18.17;13.13;;;;;;;13.76;66.82;96073.00;4968697;28;20050;-80
2022/10/11 02:02:31;;;;;;;19.08;13.82;;;;;;;13.78;66.84;96078.19;4969116;28;20027;-80
2022/10/11 02:05:11;;;;;;;20.27;14.45;;;;;;;13.76;66.72;96072.13;4985984;28;20034;-80
2022/10/11 02:08:04;;;;;;;21.13;13.85;;;;;;;13.74;66.90;96069.63;4969013;28;20422;-79
2022/10/11 02:10:43;;;;;;;23.55;14.20;;;;;;;13.68;67.15;96070.34;4972691;28;20025;-80
2022/10/11 02:13:18;;;;;;;21.90;14.70;;;;;;;13.62;67.46;96079.16;4968410;28;20453;-79
2022/10/11 02:15:43;;;;;;;20.70;14.32;;;;;;;13.55;67.32;96079.03;4954045;28;20565;-79
2022/10/11 02:18:12;;;;;;;21.35;15.73;;;;;;;13.58;67.49;96076.00;4953203;28;20026;-79
2022/10/11 02:20:39;;;;;;;21.27;13.80;;;;;;;13.53;67.66;96070.28;4953256;28;20122;-80
2022/10/11 02:23:23;;;;;;;23.77;14.05;;;;;;;13.48;68.01;96073.50;4968940;28;20503;-79
2022/10/11 02:25:48;;;;;;;20.23;15.23;;;;;;;13.50;67.90;96073.31;4953066;28;20019;-81
2022/10/11 02:28:16;;;;;;;23.52;16.25;;;;;;;13.49;67.81;96075.19;4968694;28;20019;-80
2022/10/11 02:30:42;;;;;;;19.77;15.20;;;;;;;13.56;67.92;96067.22;4952803;28;20030;-80
2022/10/11 02:33:07;;;;;;;20.70;15.02;;;;;;;13.59;67.52;96070.41;4952777;28;20026;-80
2022/10/11 02:35:35;;;;;;;22.35;14.82;;;;;;;13.64;67.64;96067.19;4952743;28;20029;-80
2022/10/11 02:38:20;;;;;;;20.35;14.25;;;;;;;13.69;67.45;96063.94;4968518;28;20026;-80
2022/10/11 02:40:47;;;;;;;23.70;14.90;;;;;;;13.77;67.04;96063.88;4968768;28;20037;-80
2022/10/11 02:43:23;;;;;;;21.83;15.18;;;;;;;13.77;66.90;96063.88;4952084;28;20022;-80
2022/10/11 02:45:51;;;;;;;20.27;14.98;;;;;;;13.79;66.84;96066.38;4970906;28;20026;-80
2022/10/11 02:48:17;;;;;;;23.05;14.88;;;;;;;13.79;67.06;96059.16;4956025;28;20022;-79
2022/10/11 02:50:42;;;;;;;22.80;15.77;;;;;;;13.78;67.07;96062.03;4972373;28;20095;-80
2022/10/11 02:53:07;;;;;;;22.20;15.98;;;;;;;13.74;67.37;96049.91;4956241;28;20045;-79
2022/10/11 02:55:33;;;;;;;22.83;14.75;;;;;;;13.81;66.89;96056.25;4956015;28;20026;-79
2022/10/11 02:57:59;;;;;;;22.60;15.63;;;;;;;13.73;67.08;96051.78;4989922;28;20030;-80
2022/10/11 03:00:24;;;;;;;22.77;15.63;;;;;;;13.86;66.50;96056.56;4939438;28;20033;-80
2022/10/11 03:02:51;;;;;;;21.98;15.98;;;;;;;13.88;66.58;96057.19;4972142;28;20483;-80
2022/10/11 03:05:16;;;;;;;24.25;16.10;;;;;;;13.83;66.56;96054.22;4988958;28;20485;-80
2022/10/11 03:07:42;;;;;;;25.25;17.00;;;;;;;13.77;67.02;96052.25;4972244;28;20085;-80
2022/10/11 03:10:08;;;;;;;25.98;15.98;;;;;;;13.83;66.68;96049.66;4989331;28;20026;-80
2022/10/11 03:12:33;;;;;;;28.58;16.88;;;;;;;13.90;66.40;96055.16;4971950;28;20030;-80
2022/10/11 03:14:58;;;;;;;24.30;16.58;;;;;;;13.79;66.90;96052.91;4955818;28;20080;-80
2022/10/11 03:17:24;;;;;;;27.50;15.75;;;;;;;13.76;66.90;96054.13;4988890;28;20031;-80
2022/10/11 03:19:49;;;;;;;26.95;16.33;;;;;;;13.79;67.05;96044.81;4939952;28;20393;-81
2022/10/11 03:22:15;;;;;;;24.63;16.60;;;;;;;13.86;66.83;96059.25;4971531;28;20471;-79
2022/10/11 03:24:40;;;;;;;25.70;17.02;;;;;;;14.03;66.26;96048.28;4971880;28;20034;-79
2022/10/11 03:27:06;;;;;;;25.65;16.73;;;;;;;14.02;66.01;96052.03;4971883;28;20041;-80
2022/10/11 03:29:31;;;;;;;22.10;15.07;;;;;;;14.05;66.06;96047.13;4971779;28;20030;-80
2022/10/11 03:31:57;;;;;;;23.02;15.90;;;;;;;14.02;66.15;96046.63;4989498;28;20073;-80
2022/10/11 03:34:23;;;;;;;23.60;15.30;;;;;;;14.05;66.06;96047.13;4988509;28;20022;-80
2022/10/11 03:36:48;;;;;;;24.38;15.82;;;;;;;14.07;66.21;96052.31;4955498;28;20026;-81
2022/10/11 03:39:14;;;;;;;21.55;14.77;;;;;;;14.09;65.91;96048.41;4988615;28;20033;-80
2022/10/11 03:41:39;;;;;;;23.13;14.88;;;;;;;14.14;65.72;96045.16;4989125;28;20034;-80
2022/10/11 03:44:05;;;;;;;21.63;15.38;;;;;;;14.10;65.97;96049.25;4988487;28;20034;-80
2022/10/11 03:46:30;;;;;;;22.67;15.40;;;;;;;14.12;65.93;96040.97;4971482;28;20190;-79
2022/10/11 03:48:55;;;;;;;21.83;15.13;;;;;;;14.05;66.23;96043.56;4971705;28;20479;-79
2022/10/11 03:51:21;;;;;;;21.55;14.98;;;;;;;14.08;66.14;96038.66;4988213;28;20480;-79
2022/10/11 03:53:46;;;;;;;21.00;14.57;;;;;;;14.07;66.09;96033.44;4955426;28;20540;-79
2022/10/11 03:56:12;;;;;;;24.35;15.35;;;;;;;13.98;66.56;96039.94;4988355;28;20023;-79
2022/10/11 03:58:37;;;;;;;20.85;14.38;;;;;;;14.01;66.33;96039.56;4971041;28;20034;-79
2022/10/11 04:01:03;;;;;;;26.08;14.98;;;;;;;14.06;66.49;96042.53;4970652;28;20089;-80
2022/10/11 04:03:28;;;;;;;22.48;15.80;;;;;;;14.08;66.29;96037.81;4970897;28;20448;-79
2022/10/11 04:05:54;;;;;;;23.80;15.57;;;;;;;14.05;66.47;96035.47;4970830;28;20025;-80
2022/10/11 04:08:19;;;;;;;20.15;14.20;;;;;;;14.03;66.79;96042.91;4988851;28;20458;-80
2022/10/11 04:10:45;;;;;;;22.63;15.27;;;;;;;14.02;66.46;96038.53;4988421;28;20042;-80
2022/10/11 04:13:10;;;;;;;25.70;15.50;;;;;;;14.12;66.37;96043.69;4971084;28;20378;-80
2022/10/11 04:15:37;;;;;;;23.20;15.75;;;;;;;14.01;66.77;96050.38;4956806;28;20037;-81
2022/10/11 04:18:02;;;;;;;24.75;16.20;;;;;;;13.95;66.74;96044.69;4970214;28;20109;-82
2022/10/11 04:20:28;;;;;;;23.20;15.77;;;;;;;13.98;66.86;96042.63;4954640;28;20029;-80
2022/10/11 04:22:53;;;;;;;27.65;16.85;;;;;;;14.05;66.64;96046.25;4954254;28;20382;-80
2022/10/11 04:25:19;;;;;;;23.15;16.15;;;;;;;13.94;67.35;96043.00;4970704;28;20105;-80
2022/10/11 04:27:44;;;;;;;31.15;15.60;;;;;;;13.89;67.31;96049.97;4987913;28;20019;-80
2022/10/11 04:30:10;;;;;;;23.48;16.00;;;;;;;13.90;67.30;96046.22;4988358;28;20022;-80
2022/10/11 04:32:35;;;;;;;27.38;16.20;;;;;;;13.96;66.92;96038.25;4987973;28;20576;-80
2022/10/11 04:35:01;;;;;;;38.78;15.88;;;;;;;13.91;67.51;96046.03;4953901;28;20085;-79
2022/10/11 04:37:26;;;;;;;27.23;16.90;;;;;;;13.92;67.49;96042.34;4988065;28;20490;-79
2022/10/11 04:39:52;;;;;;;28.77;16.23;;;;;;;14.00;67.30;96043.28;4987388;28;20806;-80
2022/10/11 04:42:17;;;;;;;29.27;17.05;;;;;;;13.93;67.56;96043.16;4987990;28;20018;-81
2022/10/11 04:44:42;;;;;;;31.35;17.02;;;;;;;13.90;67.76;96041.69;4987228;28;20041;-80
2022/10/11 04:47:08;;;;;;;26.73;16.25;;;;;;;13.92;67.96;96042.34;4970528;28;20026;-80
2022/10/11 04:49:33;;;;;;;40.00;16.27;;;;;;;13.90;67.46;96048.94;4987458;28;20026;-79
2022/10/11 04:51:59;;;;;;;23.67;15.50;;;;;;;13.88;68.24;96042.91;4969925;28;20101;-80
2022/10/11 04:54:24;;;;;;;33.67;18.70;;;;;;;13.92;67.88;96039.66;4970079;28;20031;-81
2022/10/11 04:56:50;;;;;;;31.38;15.95;;;;;;;13.90;68.21;96047.06;4969650;28;20029;-80
2022/10/11 04:59:15;;;;;;;30.83;18.13;;;;;;;13.89;67.98;96040.03;4970140;28;20041;-82
2022/10/11 05:01:40;;;;;;;30.48;18.10;;;;;;;13.94;67.96;96036.78;4969376;28;20077;-80
2022/10/11 05:04:06;;;;;;;31.30;17.23;;;;;;;13.98;68.10;96042.63;4969706;28;20026;-80
2022/10/11 05:06:31;;;;;;;28.85;16.42;;;;;;;14.02;67.93;96043.94;4987313;28;20469;-80
2022/10/11 05:08:57;;;;;;;31.77;17.65;;;;;;;14.01;68.10;96044.97;4953117;28;20107;-80
2022/10/11 05:11:22;;;;;;;31.75;17.77;;;;;;;14.00;67.99;96033.34;4987216;28;20037;-80
2022/10/11 05:13:48;;;;;;;28.00;17.42;;;;;;;14.01;68.11;96044.97;4986946;28;20018;-81
2022/10/11 05:16:13;;;;;;;28.38;17.15;;;;;;;13.92;68.59;96039.66;4987406;28;20037;-82
2022/10/11 05:18:39;;;;;;;29.10;17.67;;;;;;;13.88;68.80;96043.72;4953138;28;20034;-80
2022/10/11 05:21:37;;;;;;;32.28;16.88;;;;;;;13.82;69.45;96041.75;4953497;28;20046;-80
2022/10/11 05:24:03;;;;;;;29.02;16.80;;;;;;;13.89;69.15;96042.72;4931487;28;20038;-80
2022/10/11 05:26:28;;;;;;;33.83;17.63;;;;;;;13.81;69.26;96049.03;4969864;28;20500;-81
2022/10/11 05:28:54;;;;;;;29.30;16.88;;;;;;;13.84;69.57;96055.91;4986864;28;20053;-79
2022/10/11 05:31:19;;;;;;;32.35;18.00;;;;;;;13.86;69.42;96047.63;4969180;28;20568;-80
2022/10/11 05:33:45;;;;;;;29.77;18.35;;;;;;;13.82;69.55;96053.38;4969510;28;20387;-81
2022/10/11 05:36:10;;;;;;;30.05;18.73;;;;;;;13.97;69.22;96057.97;4968677;28;20509;-79
2022/10/11 05:38:36;;;;;;;32.90;18.67;;;;;;;13.90;69.34;96065.09;4969557;28;20486;-80
2022/10/11 05:41:02;;;;;;;33.25;18.48;;;;;;;13.92;69.41;96068.47;4952751;28;20088;-80
2022/10/11 05:43:27;;;;;;;31.13;17.42;;;;;;;13.93;69.53;96076.38;4953413;28;20409;-80
2022/10/11 05:45:53;;;;;;;33.17;18.15;;;;;;;13.84;69.80;96074.78;4953240;28;20033;-80
2022/10/11 05:48:18;;;;;;;31.48;19.00;;;;;;;13.94;69.17;96083.47;4953224;28;20026;-80
2022/10/11 05:50:44;;;;;;;27.45;17.38;;;;;;;13.88;69.81;96088.72;4986565;28;20054;-80
2022/10/11 05:53:09;;;;;;;30.80;17.80;;;;;;;13.93;69.76;96080.91;4952461;28;20030;-80
2022/10/11 05:55:38;;;;;;;38.75;17.67;;;;;;;14.02;69.76;96082.53;4986788;28;20034;-80
2022/10/11 05:58:04;;;;;;;33.70;17.95;;;;;;;13.95;69.94;96071.63;4968529;28;20049;-80
2022/10/11 06:00:29;;;;;;;33.47;17.83;;;;;;;13.93;70.08;96070.13;4953345;28;20363;-80
2022/10/11 06:02:55;;;;;;;34.08;17.77;;;;;;;13.94;70.05;96058.34;4986628;28;20030;-80
2022/10/11 06:05:20;;;;;;;35.50;17.77;;;;;;;13.91;70.20;96056.00;4968804;28;20089;-80
2022/10/11 06:07:46;;;;;;;31.65;18.20;;;;;;;13.98;70.03;96048.03;4969096;28;20057;-80
2022/10/11 06:10:11;;;;;;;32.95;17.83;;;;;;;14.05;70.03;96052.50;4986151;28;20037;-80
2022/10/11 06:12:37;;;;;;;31.95;17.80;;;;;;;14.10;69.70;96057.34;4953060;28;20121;-79
2022/10/11 06:15:03;;;;;;;31.90;17.67;;;;;;;14.20;69.46;96060.59;4986164;28;20053;-79
2022/10/11 06:17:29;;;;;;;30.60;16.58;;;;;;;14.21;69.24;96053.34;4969094;28;20026;-80
2022/10/11 06:19:54;;;;;;;36.95;17.48;;;;;;;14.21;69.42;96045.25;4986547;28;20049;-81
2022/10/11 06:22:19;;;;;;;31.25;15.80;;;;;;;14.13;69.66;96042.63;4972952;28;20031;-80
2022/10/11 06:24:45;;;;;;;30.98;16.50;;;;;;;14.17;69.73;96044.78;4990269;28;20022;-80
2022/10/11 06:27:11;;;;;;;28.15;15.68;;;;;;;14.21;69.50;96040.72;4990124;28;20027;-81
2022/10/11 06:29:36;;;;;;;27.13;16.65;;;;;;;14.25;69.10;96040.34;4990629;28;20072;-80
2022/10/11 06:32:02;;;;;;;26.52;14.80;;;;;;;14.23;69.26;96042.38;4956193;28;20038;-80
2022/10/11 06:34:27;;;;;;;31.00;14.85;;;;;;;14.30;68.55;96049.53;4990059;28;20034;-79
2022/10/11 06:36:53;;;;;;;28.80;14.35;;;;;;;14.26;68.52;96055.50;4972196;28;20128;-79
2022/10/11 06:39:18;;;;;;;26.23;14.32;;;;;;;14.28;68.14;96059.66;4956468;28;20018;-80
2022/10/11 06:41:44;;;;;;;23.75;13.77;;;;;;;14.39;67.66;96069.19;4972357;28;20034;-80
2022/10/11 06:44:12;;;;;;;27.98;13.73;;;;;;;14.38;67.53;96067.50;4990061;28;20031;-79
2022/10/11 06:46:38;;;;;;;28.17;14.32;;;;;;;14.34;67.26;96071.59;4990172;28;20413;-79
2022/10/11 06:49:03;;;;;;;28.65;14.75;;;;;;;14.31;67.80;96072.81;4956224;28;20031;-80
2022/10/11 06:51:29;;;;;;;30.48;14.57;;;;;;;14.30;68.29;96081.09;4972146;28;20050;-80
2022/10/11 06:53:56;;;;;;;21.80;13.25;;;;;;;14.42;66.91;96085.00;4989517;28;20068;-81
2022/10/11 06:56:22;;;;;;;22.65;13.23;;;;;;;14.40;67.25;96087.03;4972526;28;20038;-79
2022/10/11 06:58:47;;;;;;;25.17;13.10;;;;;;;14.37;67.35;96086.56;4989657;28;20058;-80
2022/10/11 07:01:15;;;;;;;26.52;14.05;;;;;;;14.39;67.39;96088.09;4972406;28;20125;-79
2022/10/11 07:03:41;;;;;;;24.38;12.75;;;;;;;14.43;66.95;96091.22;4956839;28;20052;-80
2022/10/11 07:06:11;;;;;;;25.45;13.73;;;;;;;14.46;66.99;96083.59;4956159;28;20031;-81
2022/10/11 07:08:37;;;;;;;26.52;13.75;;;;;;;14.45;66.84;96083.78;4972120;28;20477;-79
2022/10/11 07:11:07;;;;;;;27.42;14.27;;;;;;;14.44;66.80;96082.13;4955521;28;20038;-80
2022/10/11 07:13:33;;;;;;;27.00;14.45;;;;;;;14.42;66.88;96089.56;4956306;28;20034;-82
2022/10/11 07:16:06;;;;;;;24.52;13.20;;;;;;;14.48;66.96;96090.69;4955500;28;20445;-80
2022/10/11 07:18:31;;;;;;;25.13;13.68;;;;;;;14.46;66.59;96077.38;4956064;28;20077;-79
2022/10/11 07:20:57;;;;;;;21.73;12.73;;;;;;;14.45;66.78;96079.25;4971965;28;20026;-80
2022/10/11 07:23:23;;;;;;;29.33;13.57;;;;;;;14.48;66.56;96071.81;4971444;28;20034;-79
2022/10/11 07:25:48;;;;;;;24.25;13.65;;;;;;;14.42;66.51;96071.50;4972036;28;20034;-79
2022/10/11 07:28:14;;;;;;;25.27;13.50;;;;;;;14.37;66.63;96073.09;4971554;28;20096;-80
2022/10/11 07:30:40;;;;;;;25.20;13.90;;;;;;;14.38;67.05;96078.28;4971302;28;20034;-81
2022/10/11 07:33:05;;;;;;;25.17;14.00;;;;;;;14.34;67.00;96077.00;4939323;28;20084;-79
2022/10/11 07:35:33;;;;;;;23.73;12.25;;;;;;;14.50;67.11;96083.22;4955390;28;20022;-79
2022/10/11 07:37:58;;;;;;;25.90;12.25;;;;;;;14.64;66.59;96085.09;4955591;28;20034;-81
2022/10/11 07:40:25;;;;;;;20.75;12.60;;;;;;;14.70;66.13;96087.03;4988994;28;20384;-81
2022/10/11 07:42:50;;;;;;;21.98;11.98;;;;;;;14.73;66.23;96090.41;4971607;28;20018;-81
2022/10/11 07:45:16;;;;;;;25.83;12.55;;;;;;;14.68;66.30;96093.66;4988687;28;20041;-81
2022/10/11 07:47:45;;;;;;;23.17;12.48;;;;;;;14.71;66.39;96094.13;4955111;28;20041;-79
2022/10/11 07:50:11;;;;;;;20.73;12.55;;;;;;;14.81;65.87;96095.75;4954921;28;20428;-80
2022/10/11 07:52:36;;;;;;;22.60;11.95;;;;;;;14.90;65.23;96094.59;4955332;28;20475;-80
2022/10/11 07:55:01;;;;;;;24.13;12.48;;;;;;;14.89;65.32;96095.63;4988586;28;20464;-81
2022/10/11 07:57:27;;;;;;;23.80;13.15;;;;;;;14.91;65.33;96090.06;4988970;28;20022;-80
2022/10/11 07:59:52;;;;;;;24.17;12.25;;;;;;;14.89;65.38;96090.25;4971089;28;20031;-81
2022/10/11 08:02:18;;;;;;;26.55;12.95;;;;;;;14.90;65.07;96091.06;4971224;28;20038;-80
2022/10/11 08:04:43;;;;;;;24.35;12.48;;;;;;;14.94;64.90;96085.09;4988532;28;20030;-80
2022/10/11 08:07:08;;;;;;;23.65;14.45;;;;;;;14.91;65.07;96085.47;4970866;28;20035;-80
2022/10/11 08:09:34;;;;;;;24.85;14.10;;;;;;;14.94;64.87;96077.00;4971131;28;20493;-80
2022/10/11 08:11:59;;;;;;;28.80;14.35;;;;;;;15.06;65.55;96079.19;4970631;28;20076;-80
2022/10/11 08:14:25;;;;;;;26.15;12.88;;;;;;;15.04;64.59;96073.19;4955163;28;20023;-80
2022/10/11 08:16:50;;;;;;;22.73;12.82;;;;;;;15.07;63.50;96075.50;4988064;28;20018;-80
2022/10/11 08:19:17;;;;;;;20.48;12.15;;;;;;;15.10;63.74;96077.81;4970986;28;20065;-80
2022/10/11 08:21:42;;;;;;;23.35;12.38;;;;;;;15.11;64.45;96081.34;4970961;28;20030;-80
2022/10/11 08:24:08;;;;;;;20.73;12.00;;;;;;;15.20;64.14;96081.03;4954639;28;20093;-80
2022/10/11 08:26:33;;;;;;;20.30;12.38;;;;;;;15.26;63.80;96084.00;4988365;28;20034;-80
2022/10/11 08:29:02;;;;;;;22.48;12.80;;;;;;;15.29;63.50;96091.72;4970053;28;20061;-80
2022/10/11 08:31:28;;;;;;;20.70;11.82;;;;;;;15.24;64.12;96102.28;4971353;28;20029;-80
2022/10/11 08:33:53;;;;;;;23.20;12.95;;;;;;;15.35;63.57;96092.84;4987457;28;20022;-80
2022/10/11 08:36:19;;;;;;;20.10;12.20;;;;;;;15.31;63.34;96093.22;4988247;28;20026;-80
2022/10/11 08:38:44;;;;;;;22.00;11.93;;;;;;;15.25;63.33;96093.97;4954263;28;20034;-80
2022/10/11 08:41:23;;;;;;;24.50;12.27;;;;;;;15.18;64.01;96098.47;4987974;28;20030;-81
2022/10/11 08:44:36;;;;;;;21.23;11.50;;;;;;;15.23;63.57;96089.78;4969554;28;20204;-80
2022/10/11 08:47:15;;;;;;;23.98;12.35;;;;;;;15.28;63.12;96098.19;4974334;28;20490;-80
2022/10/11 08:49:40;;;;;;;25.73;12.18;;;;;;;15.22;63.48;96096.25;4970710;28;20516;-80
2022/10/11 08:52:31;;;;;;;19.10;12.13;;;;;;;15.16;63.60;96097.81;4953894;28;20046;-80
2022/10/11 08:55:10;;;;;;;23.52;12.38;;;;;;;15.15;63.79;96093.44;4933212;28;20043;-80
2022/10/11 08:57:36;;;;;;;25.80;12.55;;;;;;;15.20;63.61;96094.53;4954572;28;20588;-81
2022/10/11 09:00:06;;;;;;;27.40;12.55;;;;;;;15.28;63.49;96096.28;4937606;28;20054;-80
2022/10/11 09:02:54;;;;;;;23.55;13.32;;;;;;;15.30;63.50;96093.41;4970291;28;20026;-83
2022/10/11 09:05:19;;;;;;;24.77;13.60;;;;;;;15.37;63.40;96093.47;4987564;28;20489;-81
2022/10/11 09:07:54;;;;;;;21.70;13.27;;;;;;;15.38;63.07;96087.88;4953588;28;20042;-80
2022/10/11 09:10:22;;;;;;;27.33;13.68;;;;;;;15.40;63.45;96080.44;4987419;28;20543;-80
2022/10/11 09:13:34;;;;;;;22.63;12.27;;;;;;;15.54;62.40;96078.69;4986866;28;20524;-80
2022/10/11 09:16:33;;;;;;;21.88;12.55;;;;;;;15.56;62.55;96084.75;4969933;28;20052;-81
2022/10/11 09:19:26;;;;;;;27.48;12.43;;;;;;;15.56;62.99;96084.75;4929208;28;20080;-79
2022/10/11 09:22:08;;;;;;;18.13;11.35;;;;;;;15.62;62.16;96082.31;4970269;28;20022;-79
2022/10/11 09:25:28;;;;;;;21.20;12.23;;;;;;;15.56;62.74;96081.19;4970197;28;20031;-80
2022/10/11 09:28:02;;;;;;;20.33;12.07;;;;;;;15.60;61.97;96079.81;4907812;29;20095;-80
2022/10/11 09:30:28;;;;;;;19.63;11.27;;;;;;;15.68;61.93;96081.53;4876119;29;20602;-80
2022/10/11 09:33:01;;;;;;;23.77;12.77;;;;;;;15.70;61.75;96080.31;4956947;28;20049;-81
2022/10/11 09:35:27;;;;;;;19.13;11.68;;;;;;;15.73;62.14;96084.50;4969281;28;20124;-80
2022/10/11 09:38:14;;;;;;;22.10;11.90;;;;;;;15.80;62.34;96079.13;4952824;28;20027;-81
2022/10/11 09:41:37;;;;;;;18.55;12.10;;;;;;;16.13;61.18;96077.78;4986718;28;20030;-79
2022/10/11 09:44:04;;;;;;;21.13;11.55;;;;;;;16.10;60.41;96072.75;4906969;29;20620;-80
2022/10/11 09:46:31;;;;;;;18.75;11.52;;;;;;;16.21;61.52;96074.94;4875878;29;20521;-80
2022/10/11 09:48:56;;;;;;;18.83;10.63;;;;;;;16.30;60.02;96072.91;4939050;28;20516;-80
2022/10/11 09:51:24;;;;;;;20.77;11.23;;;;;;;16.40;60.04;96073.41;4949472;28;20101;-81
2022/10/11 09:53:57;;;;;;;21.20;12.05;;;;;;;16.53;59.97;96063.69;4967139;28;20019;-79
2022/10/11 09:56:24;;;;;;;21.95;11.65;;;;;;;16.61;58.87;96063.53;4966647;28;20670;-80
2022/10/11 09:59:08;;;;;;;19.35;11.23;;;;;;;16.60;58.96;96055.59;4949920;28;20062;-81
2022/10/11 10:01:34;;;;;;;17.55;11.20;;;;;;;16.62;58.92;96061.66;4950441;28;20031;-79
2022/10/11 10:04:17;;;;;;;18.30;11.77;;;;;;;16.67;59.08;96057.31;4949199;28;20062;-81
2022/10/11 10:06:43;;;;;;;19.48;11.45;;;;;;;16.78;58.52;96055.06;4965765;28;20588;-80
2022/10/11 10:09:26;;;;;;;21.27;10.73;;;;;;;16.82;58.53;96048.19;4949005;28;20027;-80
2022/10/11 10:11:52;;;;;;;17.95;11.02;;;;;;;16.92;58.89;96054.09;4949942;28;20023;-79
2022/10/11 10:14:24;;;;;;;23.73;11.88;;;;;;;16.93;58.64;96054.91;4949265;28;20509;-80
2022/10/11 10:17:11;;;;;;;18.65;11.35;;;;;;;16.95;57.32;96052.84;4949358;28;20045;-80
2022/10/11 10:19:55;;;;;;;17.30;10.73;;;;;;;16.97;58.43;96058.06;4951578;28;20038;-80
2022/10/11 10:22:29;;;;;;;17.98;11.18;;;;;;;16.93;57.78;96046.78;4949062;28;20490;-81
2022/10/11 10:24:54;;;;;;;19.08;11.40;;;;;;;17.02;58.43;96042.03;4950400;28;20371;-81
2022/10/11 10:27:22;;;;;;;15.63;11.65;;;;;;;17.13;58.06;96043.34;4965364;28;20600;-80
2022/10/11 10:30:00;;;;;;;18.15;11.05;;;;;;;17.11;58.11;96040.84;4949208;28;20101;-81
2022/10/11 10:32:52;;;;;;;18.33;11.30;;;;;;;17.20;57.30;96037.97;4966763;28;20027;-81
2022/10/11 10:35:37;;;;;;;17.35;11.10;;;;;;;17.22;57.08;96030.47;4964188;28;20329;-80
2022/10/11 10:38:06;;;;;;;18.42;11.23;;;;;;;17.18;57.24;96021.91;4965441;28;20131;-80
2022/10/11 10:40:39;;;;;;;15.63;10.85;;;;;;;17.14;57.25;96029.59;4966593;28;20031;-80
2022/10/11 10:43:04;;;;;;;16.55;10.57;;;;;;;17.20;57.55;96024.41;4949526;28;20026;-79
2022/10/11 10:45:38;;;;;;;17.52;10.95;;;;;;;17.17;57.45;96026.47;4965266;28;20402;-80
2022/10/11 10:48:03;;;;;;;19.25;10.52;;;;;;;17.24;57.33;96022.94;4949712;28;20027;-80
2022/10/11 10:50:57;;;;;;;16.55;10.75;;;;;;;17.23;56.80;96024.84;4970779;28;20065;-80
2022/10/11 10:53:39;;;;;;;22.88;11.55;;;;;;;17.26;56.27;96010.88;4935003;28;20046;-80
2022/10/11 10:56:11;;;;;;;17.73;10.55;;;;;;;17.24;56.43;96003.97;4968140;28;20034;-81
2022/10/11 10:58:58;;;;;;;16.60;10.75;;;;;;;17.22;56.85;96011.50;4952246;28;20113;-80
2022/10/11 11:01:26;;;;;;;23.38;12.27;;;;;;;17.32;56.09;96008.34;4954294;28;20030;-81
2022/10/11 11:04:04;;;;;;;17.33;11.32;;;;;;;17.44;56.07;95995.88;4968551;28;20464;-80
2022/10/11 11:06:49;;;;;;;18.67;11.75;;;;;;;17.40;55.86;96000.03;4954599;28;20022;-81
2022/10/11 11:09:30;;;;;;;18.85;11.27;;;;;;;17.39;56.50;95998.38;4957120;28;20497;-81
2022/10/11 11:12:05;;;;;;;20.35;11.68;;;;;;;17.35;56.56;95999.81;4989612;28;20121;-80
2022/10/11 11:15:02;;;;;;;19.65;12.13;;;;;;;17.36;56.92;95994.19;4955391;28;20444;-81
2022/10/11 11:17:54;;;;;;;18.50;12.48;;;;;;;17.40;56.55;95995.47;4972456;28;20512;-80
2022/10/11 11:20:29;;;;;;;18.17;12.15;;;;;;;17.42;56.88;95993.38;4981006;28;20046;-81
2022/10/11 11:23:00;;;;;;;20.55;11.25;;;;;;;17.39;56.72;95985.66;4989381;28;20563;-80
2022/10/11 11:25:50;;;;;;;19.98;12.18;;;;;;;17.42;56.70;95981.69;4989253;28;20557;-81
2022/10/11 11:28:57;;;;;;;19.27;10.90;;;;;;;17.46;56.04;95982.13;4989259;28;20027;-81
2022/10/11 11:31:47;;;;;;;22.08;11.80;;;;;;;17.55;56.38;95983.59;4934865;28;20042;-80